sensor_id;sensor_type;location;lat;lon;timestamp;P1;durP1;ratioP1;P2;durP2;ratioP2
47784;SDS011;35233;55.686;37.848;2022-11-28T00:01:06;12.18;;;6.90;;
47784;SDS011;35233;55.686;37.848;2022-11-28T00:03:33;10.57;;;6.50;;
47784;SDS011;35233;55.686;37.848;2022-11-28T00:06:03;11.05;;;6.38;;
47784;SDS011;35233;55.686;37.848;2022-11-28T00:08:30;10.95;;;6.28;;
47784;SDS011;35233;55.686;37.848;2022-11-28T00:10:56;11.15;;;7.18;;
47784;SDS011;35233;55.686;37.848;2022-11-28T00:13:22;10.40;;;6.55;;
47784;SDS011;35233;55.686;37.848;2022-11-28T00:15:54;9.38;;;6.07;;
47784;SDS011;35233;55.686;37.848;2022-11-28T00:18:21;9.50;;;6.03;;
47784;SDS011;35233;55.686;37.848;2022-11-28T00:20:46;9.85;;;6.50;;
47784;SDS011;35233;55.686;37.848;2022-11-28T00:23:12;10.38;;;5.72;;
47784;SDS011;35233;55.686;37.848;2022-11-28T00:25:37;8.85;;;6.07;;
47784;SDS011;35233;55.686;37.848;2022-11-28T00:28:03;9.95;;;6.43;;
47784;SDS011;35233;55.686;37.848;2022-11-28T00:30:28;9.38;;;6.07;;
47784;SDS011;35233;55.686;37.848;2022-11-28T00:32:54;9.57;;;6.35;;
47784;SDS011;35233;55.686;37.848;2022-11-28T00:35:19;11.05;;;5.88;;
47784;SDS011;35233;55.686;37.848;2022-11-28T00:37:45;10.68;;;6.13;;
47784;SDS011;35233;55.686;37.848;2022-11-28T00:40:10;10.15;;;6.07;;
47784;SDS011;35233;55.686;37.848;2022-11-28T00:42:36;8.65;;;6.05;;
47784;SDS011;35233;55.686;37.848;2022-11-28T00:45:02;10.60;;;6.40;;
47784;SDS011;35233;55.686;37.848;2022-11-28T00:47:28;9.10;;;5.80;;
47784;SDS011;35233;55.686;37.848;2022-11-28T00:49:53;9.48;;;5.95;;
47784;SDS011;35233;55.686;37.848;2022-11-28T00:52:19;9.02;;;5.85;;
47784;SDS011;35233;55.686;37.848;2022-11-28T00:54:44;9.45;;;5.90;;
47784;SDS011;35233;55.686;37.848;2022-11-28T00:57:10;9.55;;;5.65;;
47784;SDS011;35233;55.686;37.848;2022-11-28T00:59:35;9.75;;;6.00;;
47784;SDS011;35233;55.686;37.848;2022-11-28T01:02:01;8.48;;;5.53;;
47784;SDS011;35233;55.686;37.848;2022-11-28T01:04:26;9.80;;;5.65;;
47784;SDS011;35233;55.686;37.848;2022-11-28T01:06:52;9.95;;;5.57;;
47784;SDS011;35233;55.686;37.848;2022-11-28T01:09:22;9.93;;;6.05;;
47784;SDS011;35233;55.686;37.848;2022-11-28T01:11:49;10.15;;;5.72;;
47784;SDS011;35233;55.686;37.848;2022-11-28T01:14:20;10.05;;;6.13;;
47784;SDS011;35233;55.686;37.848;2022-11-28T01:16:47;8.25;;;5.70;;
47784;SDS011;35233;55.686;37.848;2022-11-28T01:19:13;10.35;;;5.97;;
47784;SDS011;35233;55.686;37.848;2022-11-28T01:21:39;7.90;;;5.47;;
47784;SDS011;35233;55.686;37.848;2022-11-28T01:24:05;8.32;;;5.47;;
47784;SDS011;35233;55.686;37.848;2022-11-28T01:26:30;8.57;;;5.30;;
47784;SDS011;35233;55.686;37.848;2022-11-28T01:28:57;8.82;;;5.70;;
47784;SDS011;35233;55.686;37.848;2022-11-28T01:31:27;8.65;;;5.85;;
47784;SDS011;35233;55.686;37.848;2022-11-28T01:33:54;8.57;;;5.53;;
47784;SDS011;35233;55.686;37.848;2022-11-28T01:36:21;8.00;;;5.30;;
47784;SDS011;35233;55.686;37.848;2022-11-28T01:38:46;8.93;;;5.18;;
47784;SDS011;35233;55.686;37.848;2022-11-28T01:41:13;9.13;;;5.40;;
47784;SDS011;35233;55.686;37.848;2022-11-28T01:46:51;7.47;;;4.75;;
47784;SDS011;35233;55.686;37.848;2022-11-28T01:49:21;8.05;;;5.70;;
47784;SDS011;35233;55.686;37.848;2022-11-28T01:51:59;9.43;;;4.88;;
47784;SDS011;35233;55.686;37.848;2022-11-28T01:54:28;8.35;;;5.47;;
47784;SDS011;35233;55.686;37.848;2022-11-28T01:56:56;8.25;;;5.63;;
47784;SDS011;35233;55.686;37.848;2022-11-28T01:59:26;6.72;;;4.72;;
47784;SDS011;35233;55.686;37.848;2022-11-28T02:01:54;7.30;;;5.03;;
47784;SDS011;35233;55.686;37.848;2022-11-28T02:04:19;7.80;;;4.90;;
47784;SDS011;35233;55.686;37.848;2022-11-28T02:06:46;8.40;;;5.30;;
47784;SDS011;35233;55.686;37.848;2022-11-28T02:09:12;8.15;;;5.32;;
47784;SDS011;35233;55.686;37.848;2022-11-28T02:14:42;7.97;;;5.15;;
47784;SDS011;35233;55.686;37.848;2022-11-28T02:23:03;7.03;;;4.90;;
47784;SDS011;35233;55.686;37.848;2022-11-28T02:34:24;7.20;;;4.72;;
47784;SDS011;35233;55.686;37.848;2022-11-28T02:37:02;8.55;;;5.03;;
47784;SDS011;35233;55.686;37.848;2022-11-28T02:39:51;8.45;;;5.53;;
47784;SDS011;35233;55.686;37.848;2022-11-28T02:42:32;8.00;;;5.28;;
47784;SDS011;35233;55.686;37.848;2022-11-28T02:45:22;7.20;;;5.05;;
47784;SDS011;35233;55.686;37.848;2022-11-28T02:48:03;7.47;;;4.95;;
47784;SDS011;35233;55.686;37.848;2022-11-28T02:50:41;7.50;;;4.95;;
47784;SDS011;35233;55.686;37.848;2022-11-28T02:53:15;7.88;;;4.85;;
47784;SDS011;35233;55.686;37.848;2022-11-28T02:55:46;7.22;;;4.65;;
47784;SDS011;35233;55.686;37.848;2022-11-28T02:58:13;7.38;;;5.03;;
47784;SDS011;35233;55.686;37.848;2022-11-28T03:00:39;7.07;;;5.03;;
47784;SDS011;35233;55.686;37.848;2022-11-28T03:05:59;8.65;;;4.80;;
47784;SDS011;35233;55.686;37.848;2022-11-28T03:11:40;7.60;;;5.00;;
47784;SDS011;35233;55.686;37.848;2022-11-28T03:14:29;7.13;;;4.78;;
47784;SDS011;35233;55.686;37.848;2022-11-28T03:19:50;7.72;;;5.03;;
47784;SDS011;35233;55.686;37.848;2022-11-28T03:22:29;6.82;;;4.68;;
47784;SDS011;35233;55.686;37.848;2022-11-28T03:25:07;8.75;;;5.05;;
47784;SDS011;35233;55.686;37.848;2022-11-28T03:27:57;7.70;;;4.95;;
47784;SDS011;35233;55.686;37.848;2022-11-28T03:30:48;8.63;;;5.18;;
47784;SDS011;35233;55.686;37.848;2022-11-28T03:33:19;8.48;;;5.72;;
47784;SDS011;35233;55.686;37.848;2022-11-28T03:35:49;7.55;;;5.53;;
47784;SDS011;35233;55.686;37.848;2022-11-28T03:38:27;8.02;;;5.35;;
47784;SDS011;35233;55.686;37.848;2022-11-28T03:41:07;8.45;;;5.03;;
47784;SDS011;35233;55.686;37.848;2022-11-28T03:43:40;8.50;;;5.43;;
47784;SDS011;35233;55.686;37.848;2022-11-28T03:46:11;10.27;;;5.40;;
47784;SDS011;35233;55.686;37.848;2022-11-28T03:48:41;8.45;;;5.85;;
47784;SDS011;35233;55.686;37.848;2022-11-28T03:54:21;8.73;;;5.70;;
47784;SDS011;35233;55.686;37.848;2022-11-28T03:56:41;7.53;;;5.10;;
47784;SDS011;35233;55.686;37.848;2022-11-28T03:59:23;9.10;;;5.80;;
47784;SDS011;35233;55.686;37.848;2022-11-28T04:01:59;8.90;;;5.43;;
47784;SDS011;35233;55.686;37.848;2022-11-28T04:24:03;9.18;;;4.90;;
47784;SDS011;35233;55.686;37.848;2022-11-28T04:26:34;8.73;;;5.50;;
47784;SDS011;35233;55.686;37.848;2022-11-28T04:29:07;9.65;;;5.57;;
47784;SDS011;35233;55.686;37.848;2022-11-28T04:31:38;8.68;;;5.57;;
47784;SDS011;35233;55.686;37.848;2022-11-28T04:34:06;8.70;;;5.93;;
47784;SDS011;35233;55.686;37.848;2022-11-28T04:36:36;10.50;;;6.10;;
47784;SDS011;35233;55.686;37.848;2022-11-28T04:39:08;10.15;;;5.57;;
47784;SDS011;35233;55.686;37.848;2022-11-28T04:44:11;7.50;;;4.97;;
47784;SDS011;35233;55.686;37.848;2022-11-28T04:46:43;9.25;;;5.50;;
47784;SDS011;35233;55.686;37.848;2022-11-28T04:49:12;9.70;;;6.20;;
47784;SDS011;35233;55.686;37.848;2022-11-28T04:51:41;10.10;;;5.53;;
47784;SDS011;35233;55.686;37.848;2022-11-28T04:56:46;10.00;;;5.70;;
47784;SDS011;35233;55.686;37.848;2022-11-28T04:59:22;11.02;;;5.80;;
47784;SDS011;35233;55.686;37.848;2022-11-28T05:01:51;11.38;;;6.18;;
47784;SDS011;35233;55.686;37.848;2022-11-28T05:04:18;9.30;;;5.75;;
47784;SDS011;35233;55.686;37.848;2022-11-28T05:06:43;9.98;;;6.15;;
47784;SDS011;35233;55.686;37.848;2022-11-28T05:09:10;11.07;;;5.88;;
47784;SDS011;35233;55.686;37.848;2022-11-28T05:11:36;8.63;;;5.50;;
47784;SDS011;35233;55.686;37.848;2022-11-28T05:14:02;10.35;;;6.03;;
47784;SDS011;35233;55.686;37.848;2022-11-28T05:16:28;9.63;;;5.78;;
47784;SDS011;35233;55.686;37.848;2022-11-28T05:18:53;9.18;;;5.78;;
47784;SDS011;35233;55.686;37.848;2022-11-28T05:21:19;8.95;;;6.15;;
47784;SDS011;35233;55.686;37.848;2022-11-28T05:23:45;7.72;;;5.47;;
47784;SDS011;35233;55.686;37.848;2022-11-28T05:26:15;9.80;;;6.00;;
47784;SDS011;35233;55.686;37.848;2022-11-28T05:28:43;9.48;;;6.25;;
47784;SDS011;35233;55.686;37.848;2022-11-28T05:31:14;9.00;;;6.00;;
47784;SDS011;35233;55.686;37.848;2022-11-28T05:33:40;10.35;;;6.50;;
47784;SDS011;35233;55.686;37.848;2022-11-28T05:36:06;12.35;;;6.53;;
47784;SDS011;35233;55.686;37.848;2022-11-28T05:38:34;11.55;;;6.20;;
47784;SDS011;35233;55.686;37.848;2022-11-28T05:41:00;11.48;;;7.45;;
47784;SDS011;35233;55.686;37.848;2022-11-28T05:43:26;11.68;;;7.07;;
47784;SDS011;35233;55.686;37.848;2022-11-28T05:45:52;11.88;;;7.30;;
47784;SDS011;35233;55.686;37.848;2022-11-28T05:48:19;12.55;;;7.13;;
47784;SDS011;35233;55.686;37.848;2022-11-28T05:50:45;11.40;;;6.88;;
47784;SDS011;35233;55.686;37.848;2022-11-28T05:53:10;10.88;;;7.15;;
47784;SDS011;35233;55.686;37.848;2022-11-28T05:55:37;11.32;;;6.95;;
47784;SDS011;35233;55.686;37.848;2022-11-28T05:58:03;12.32;;;7.43;;
47784;SDS011;35233;55.686;37.848;2022-11-28T06:00:29;11.43;;;8.23;;
47784;SDS011;35233;55.686;37.848;2022-11-28T06:02:55;13.43;;;7.78;;
47784;SDS011;35233;55.686;37.848;2022-11-28T06:05:21;10.23;;;7.18;;
47784;SDS011;35233;55.686;37.848;2022-11-28T06:07:47;12.63;;;7.30;;
47784;SDS011;35233;55.686;37.848;2022-11-28T06:10:13;10.95;;;6.88;;
47784;SDS011;35233;55.686;37.848;2022-11-28T06:12:38;11.68;;;6.90;;
47784;SDS011;35233;55.686;37.848;2022-11-28T06:15:04;11.63;;;7.05;;
47784;SDS011;35233;55.686;37.848;2022-11-28T06:17:31;11.68;;;6.65;;
47784;SDS011;35233;55.686;37.848;2022-11-28T06:19:56;10.38;;;7.10;;
47784;SDS011;35233;55.686;37.848;2022-11-28T06:22:33;11.18;;;7.80;;
47784;SDS011;35233;55.686;37.848;2022-11-28T06:25:02;10.63;;;7.05;;
47784;SDS011;35233;55.686;37.848;2022-11-28T06:27:27;10.70;;;6.53;;
47784;SDS011;35233;55.686;37.848;2022-11-28T06:29:53;9.90;;;6.60;;
47784;SDS011;35233;55.686;37.848;2022-11-28T06:32:18;10.43;;;6.88;;
47784;SDS011;35233;55.686;37.848;2022-11-28T06:34:44;9.98;;;6.50;;
47784;SDS011;35233;55.686;37.848;2022-11-28T06:37:10;8.90;;;6.00;;
47784;SDS011;35233;55.686;37.848;2022-11-28T06:39:35;9.55;;;6.53;;
47784;SDS011;35233;55.686;37.848;2022-11-28T06:42:01;9.02;;;6.50;;
47784;SDS011;35233;55.686;37.848;2022-11-28T06:44:27;10.10;;;6.45;;
47784;SDS011;35233;55.686;37.848;2022-11-28T06:46:52;10.88;;;6.75;;
47784;SDS011;35233;55.686;37.848;2022-11-28T06:49:19;10.65;;;6.63;;
47784;SDS011;35233;55.686;37.848;2022-11-28T06:51:45;11.10;;;6.03;;
47784;SDS011;35233;55.686;37.848;2022-11-28T06:54:11;9.65;;;6.65;;
47784;SDS011;35233;55.686;37.848;2022-11-28T06:56:38;8.80;;;5.90;;
47784;SDS011;35233;55.686;37.848;2022-11-28T06:59:06;11.73;;;6.55;;
47784;SDS011;35233;55.686;37.848;2022-11-28T07:01:32;9.05;;;5.50;;
47784;SDS011;35233;55.686;37.848;2022-11-28T07:03:58;9.85;;;6.40;;
47784;SDS011;35233;55.686;37.848;2022-11-28T07:06:24;8.35;;;5.93;;
47784;SDS011;35233;55.686;37.848;2022-11-28T07:08:51;10.25;;;6.53;;
47784;SDS011;35233;55.686;37.848;2022-11-28T07:11:21;9.30;;;5.53;;
47784;SDS011;35233;55.686;37.848;2022-11-28T07:13:51;10.30;;;6.20;;
47784;SDS011;35233;55.686;37.848;2022-11-28T07:16:19;9.55;;;6.22;;
47784;SDS011;35233;55.686;37.848;2022-11-28T07:18:46;11.15;;;5.47;;
47784;SDS011;35233;55.686;37.848;2022-11-28T07:21:19;8.95;;;5.80;;
47784;SDS011;35233;55.686;37.848;2022-11-28T07:23:46;8.50;;;5.60;;
47784;SDS011;35233;55.686;37.848;2022-11-28T07:26:13;8.45;;;5.55;;
47784;SDS011;35233;55.686;37.848;2022-11-28T07:28:40;9.32;;;6.05;;
47784;SDS011;35233;55.686;37.848;2022-11-28T07:31:10;9.00;;;5.90;;
47784;SDS011;35233;55.686;37.848;2022-11-28T07:33:41;8.32;;;5.40;;
47784;SDS011;35233;55.686;37.848;2022-11-28T07:36:10;7.68;;;5.63;;
47784;SDS011;35233;55.686;37.848;2022-11-28T07:38:37;8.20;;;5.70;;
47784;SDS011;35233;55.686;37.848;2022-11-28T07:41:04;10.05;;;6.03;;
47784;SDS011;35233;55.686;37.848;2022-11-28T07:43:33;8.00;;;5.50;;
47784;SDS011;35233;55.686;37.848;2022-11-28T07:46:02;9.05;;;5.72;;
47784;SDS011;35233;55.686;37.848;2022-11-28T07:48:29;8.45;;;6.15;;
47784;SDS011;35233;55.686;37.848;2022-11-28T07:50:54;9.07;;;5.80;;
47784;SDS011;35233;55.686;37.848;2022-11-28T07:53:20;8.02;;;5.10;;
47784;SDS011;35233;55.686;37.848;2022-11-28T07:55:46;7.55;;;5.47;;
47784;SDS011;35233;55.686;37.848;2022-11-28T07:58:11;9.00;;;6.30;;
47784;SDS011;35233;55.686;37.848;2022-11-28T08:00:37;9.10;;;6.13;;
47784;SDS011;35233;55.686;37.848;2022-11-28T08:03:02;9.32;;;5.80;;
47784;SDS011;35233;55.686;37.848;2022-11-28T08:05:28;7.93;;;5.43;;
47784;SDS011;35233;55.686;37.848;2022-11-28T08:07:53;8.18;;;5.65;;
47784;SDS011;35233;55.686;37.848;2022-11-28T08:10:19;8.95;;;5.50;;
47784;SDS011;35233;55.686;37.848;2022-11-28T08:12:45;7.80;;;5.22;;
47784;SDS011;35233;55.686;37.848;2022-11-28T08:15:10;6.90;;;5.13;;
47784;SDS011;35233;55.686;37.848;2022-11-28T08:17:36;7.75;;;5.15;;
47784;SDS011;35233;55.686;37.848;2022-11-28T08:20:02;8.23;;;5.43;;
47784;SDS011;35233;55.686;37.848;2022-11-28T08:22:28;8.15;;;5.75;;
47784;SDS011;35233;55.686;37.848;2022-11-28T08:24:53;9.07;;;5.75;;
47784;SDS011;35233;55.686;37.848;2022-11-28T08:27:19;9.20;;;5.53;;
47784;SDS011;35233;55.686;37.848;2022-11-28T08:29:44;7.75;;;5.55;;
47784;SDS011;35233;55.686;37.848;2022-11-28T08:32:10;9.10;;;6.05;;
47784;SDS011;35233;55.686;37.848;2022-11-28T08:34:35;8.50;;;5.72;;
47784;SDS011;35233;55.686;37.848;2022-11-28T08:37:01;9.07;;;5.80;;
47784;SDS011;35233;55.686;37.848;2022-11-28T08:39:26;7.68;;;5.93;;
47784;SDS011;35233;55.686;37.848;2022-11-28T08:41:52;7.18;;;5.43;;
47784;SDS011;35233;55.686;37.848;2022-11-28T08:44:21;8.35;;;5.28;;
47784;SDS011;35233;55.686;37.848;2022-11-28T08:46:47;9.77;;;5.53;;
47784;SDS011;35233;55.686;37.848;2022-11-28T08:49:13;7.80;;;5.47;;
47784;SDS011;35233;55.686;37.848;2022-11-28T08:51:38;9.90;;;5.55;;
47784;SDS011;35233;55.686;37.848;2022-11-28T08:54:04;8.60;;;5.25;;
47784;SDS011;35233;55.686;37.848;2022-11-28T08:56:30;7.72;;;4.95;;
47784;SDS011;35233;55.686;37.848;2022-11-28T08:58:55;8.07;;;5.30;;
47784;SDS011;35233;55.686;37.848;2022-11-28T09:01:22;8.90;;;5.53;;
47784;SDS011;35233;55.686;37.848;2022-11-28T09:03:49;9.10;;;5.47;;
47784;SDS011;35233;55.686;37.848;2022-11-28T09:06:15;6.93;;;5.05;;
47784;SDS011;35233;55.686;37.848;2022-11-28T09:08:42;8.25;;;4.90;;
47784;SDS011;35233;55.686;37.848;2022-11-28T09:11:08;7.35;;;5.53;;
47784;SDS011;35233;55.686;37.848;2022-11-28T09:13:36;7.88;;;5.15;;
47784;SDS011;35233;55.686;37.848;2022-11-28T09:16:02;9.32;;;5.88;;
47784;SDS011;35233;55.686;37.848;2022-11-28T09:18:28;6.82;;;4.80;;
47784;SDS011;35233;55.686;37.848;2022-11-28T09:21:01;7.50;;;5.28;;
47784;SDS011;35233;55.686;37.848;2022-11-28T09:23:36;7.30;;;5.18;;
47784;SDS011;35233;55.686;37.848;2022-11-28T09:26:16;7.35;;;4.88;;
47784;SDS011;35233;55.686;37.848;2022-11-28T09:28:44;7.05;;;4.70;;
47784;SDS011;35233;55.686;37.848;2022-11-28T09:31:10;7.57;;;4.78;;
47784;SDS011;35233;55.686;37.848;2022-11-28T09:33:36;7.50;;;4.90;;
47784;SDS011;35233;55.686;37.848;2022-11-28T09:36:03;8.02;;;4.97;;
47784;SDS011;35233;55.686;37.848;2022-11-28T09:38:30;7.05;;;5.13;;
47784;SDS011;35233;55.686;37.848;2022-11-28T09:40:55;7.03;;;4.90;;
47784;SDS011;35233;55.686;37.848;2022-11-28T09:45:52;8.80;;;4.88;;
47784;SDS011;35233;55.686;37.848;2022-11-28T09:51:00;7.65;;;5.20;;
47784;SDS011;35233;55.686;37.848;2022-11-28T09:53:35;7.13;;;5.03;;
47784;SDS011;35233;55.686;37.848;2022-11-28T09:56:11;6.90;;;4.60;;
47784;SDS011;35233;55.686;37.848;2022-11-28T09:58:42;8.68;;;5.45;;
47784;SDS011;35233;55.686;37.848;2022-11-28T10:14:43;6.75;;;5.15;;
47784;SDS011;35233;55.686;37.848;2022-11-28T10:17:23;7.22;;;5.20;;
47784;SDS011;35233;55.686;37.848;2022-11-28T10:22:41;7.78;;;5.07;;
47784;SDS011;35233;55.686;37.848;2022-11-28T10:25:17;6.20;;;4.22;;
47784;SDS011;35233;55.686;37.848;2022-11-28T10:27:48;6.82;;;4.38;;
47784;SDS011;35233;55.686;37.848;2022-11-28T10:30:17;6.53;;;4.40;;
47784;SDS011;35233;55.686;37.848;2022-11-28T10:32:53;6.60;;;4.65;;
47784;SDS011;35233;55.686;37.848;2022-11-28T10:36:08;6.40;;;4.20;;
47784;SDS011;35233;55.686;37.848;2022-11-28T10:38:18;6.47;;;4.60;;
47784;SDS011;35233;55.686;37.848;2022-11-28T10:49:46;7.93;;;4.25;;
47784;SDS011;35233;55.686;37.848;2022-11-28T10:52:25;6.95;;;4.10;;
47784;SDS011;35233;55.686;37.848;2022-11-28T10:58:20;6.35;;;4.00;;
47784;SDS011;35233;55.686;37.848;2022-11-28T11:00:51;5.72;;;4.25;;
47784;SDS011;35233;55.686;37.848;2022-11-28T11:03:19;6.85;;;4.13;;
47784;SDS011;35233;55.686;37.848;2022-11-28T11:05:56;6.63;;;4.45;;
47784;SDS011;35233;55.686;37.848;2022-11-28T11:08:27;5.18;;;3.78;;
47784;SDS011;35233;55.686;37.848;2022-11-28T11:16:47;5.25;;;3.95;;
47784;SDS011;35233;55.686;37.848;2022-11-28T11:19:34;5.22;;;3.80;;
47784;SDS011;35233;55.686;37.848;2022-11-28T11:22:03;5.55;;;4.18;;
47784;SDS011;35233;55.686;37.848;2022-11-28T11:27:36;6.90;;;4.25;;
47784;SDS011;35233;55.686;37.848;2022-11-28T11:33:13;5.65;;;3.88;;
47784;SDS011;35233;55.686;37.848;2022-11-28T11:35:42;5.80;;;3.83;;
47784;SDS011;35233;55.686;37.848;2022-11-28T11:40:44;5.55;;;3.60;;
47784;SDS011;35233;55.686;37.848;2022-11-28T11:43:28;5.32;;;3.55;;
47784;SDS011;35233;55.686;37.848;2022-11-28T11:46:07;6.50;;;4.15;;
47784;SDS011;35233;55.686;37.848;2022-11-28T11:48:35;5.32;;;3.90;;
47784;SDS011;35233;55.686;37.848;2022-11-28T11:51:06;6.38;;;4.15;;
47784;SDS011;35233;55.686;37.848;2022-11-28T11:53:59;6.57;;;4.05;;
47784;SDS011;35233;55.686;37.848;2022-11-28T11:56:37;7.15;;;4.43;;
47784;SDS011;35233;55.686;37.848;2022-11-28T11:59:17;7.20;;;4.10;;
47784;SDS011;35233;55.686;37.848;2022-11-28T12:01:50;5.15;;;3.75;;
47784;SDS011;35233;55.686;37.848;2022-11-28T12:04:25;5.22;;;3.80;;
47784;SDS011;35233;55.686;37.848;2022-11-28T12:06:59;5.15;;;3.90;;
47784;SDS011;35233;55.686;37.848;2022-11-28T12:09:45;5.30;;;4.18;;
47784;SDS011;35233;55.686;37.848;2022-11-28T12:12:17;6.07;;;4.40;;
47784;SDS011;35233;55.686;37.848;2022-11-28T12:14:48;7.00;;;4.53;;
47784;SDS011;35233;55.686;37.848;2022-11-28T12:26:19;6.10;;;4.15;;
47784;SDS011;35233;55.686;37.848;2022-11-28T12:35:01;6.55;;;4.18;;
47784;SDS011;35233;55.686;37.848;2022-11-28T12:40:21;6.60;;;4.47;;
47784;SDS011;35233;55.686;37.848;2022-11-28T12:45:39;6.72;;;4.40;;
47784;SDS011;35233;55.686;37.848;2022-11-28T12:51:06;6.68;;;4.22;;
47784;SDS011;35233;55.686;37.848;2022-11-28T12:53:53;6.05;;;4.20;;
47784;SDS011;35233;55.686;37.848;2022-11-28T12:59:24;7.15;;;4.45;;
47784;SDS011;35233;55.686;37.848;2022-11-28T13:05:08;5.57;;;4.15;;
47784;SDS011;35233;55.686;37.848;2022-11-28T13:10:29;6.20;;;4.32;;
47784;SDS011;35233;55.686;37.848;2022-11-28T13:13:05;6.30;;;4.43;;
47784;SDS011;35233;55.686;37.848;2022-11-28T13:15:40;6.72;;;4.60;;
47784;SDS011;35233;55.686;37.848;2022-11-28T13:18:40;5.85;;;4.40;;
47784;SDS011;35233;55.686;37.848;2022-11-28T13:21:25;6.18;;;4.28;;
47784;SDS011;35233;55.686;37.848;2022-11-28T13:26:50;7.03;;;4.68;;
47784;SDS011;35233;55.686;37.848;2022-11-28T13:29:43;6.25;;;4.25;;
47784;SDS011;35233;55.686;37.848;2022-11-28T13:32:29;7.13;;;4.72;;
47784;SDS011;35233;55.686;37.848;2022-11-28T13:35:21;6.57;;;4.05;;
47784;SDS011;35233;55.686;37.848;2022-11-28T13:37:57;6.07;;;4.20;;
47784;SDS011;35233;55.686;37.848;2022-11-28T13:40:34;5.80;;;3.95;;
47784;SDS011;35233;55.686;37.848;2022-11-28T13:43:32;5.63;;;3.80;;
47784;SDS011;35233;55.686;37.848;2022-11-28T13:46:00;7.25;;;3.97;;
47784;SDS011;35233;55.686;37.848;2022-11-28T13:51:20;6.60;;;4.40;;
47784;SDS011;35233;55.686;37.848;2022-11-28T13:56:45;6.40;;;4.32;;
47784;SDS011;35233;55.686;37.848;2022-11-28T13:59:17;5.78;;;4.03;;
47784;SDS011;35233;55.686;37.848;2022-11-28T14:01:46;7.22;;;4.20;;
47784;SDS011;35233;55.686;37.848;2022-11-28T14:04:18;6.13;;;4.20;;
47784;SDS011;35233;55.686;37.848;2022-11-28T14:06:45;4.97;;;3.80;;
47784;SDS011;35233;55.686;37.848;2022-11-28T14:12:17;6.18;;;4.15;;
47784;SDS011;35233;55.686;37.848;2022-11-28T14:21:19;5.97;;;4.18;;
47784;SDS011;35233;55.686;37.848;2022-11-28T14:26:13;6.45;;;4.25;;
47784;SDS011;35233;55.686;37.848;2022-11-28T14:29:16;5.25;;;3.80;;
47784;SDS011;35233;55.686;37.848;2022-11-28T14:31:45;6.28;;;4.18;;
47784;SDS011;35233;55.686;37.848;2022-11-28T14:39:55;5.72;;;4.25;;
47784;SDS011;35233;55.686;37.848;2022-11-28T14:52:29;6.65;;;4.53;;
47784;SDS011;35233;55.686;37.848;2022-11-28T14:54:57;5.55;;;3.92;;
47784;SDS011;35233;55.686;37.848;2022-11-28T14:57:25;6.13;;;4.18;;
47784;SDS011;35233;55.686;37.848;2022-11-28T14:59:56;5.68;;;4.18;;
47784;SDS011;35233;55.686;37.848;2022-11-28T15:13:24;5.95;;;4.57;;
47784;SDS011;35233;55.686;37.848;2022-11-28T15:15:59;6.45;;;4.50;;
47784;SDS011;35233;55.686;37.848;2022-11-28T15:18:29;7.22;;;4.93;;
47784;SDS011;35233;55.686;37.848;2022-11-28T15:20:57;7.57;;;5.05;;
47784;SDS011;35233;55.686;37.848;2022-11-28T15:23:32;6.82;;;4.88;;
47784;SDS011;35233;55.686;37.848;2022-11-28T15:26:01;6.30;;;4.38;;
47784;SDS011;35233;55.686;37.848;2022-11-28T15:28:33;5.80;;;4.28;;
47784;SDS011;35233;55.686;37.848;2022-11-28T15:33:29;6.78;;;4.50;;
47784;SDS011;35233;55.686;37.848;2022-11-28T15:36:04;7.90;;;4.93;;
47784;SDS011;35233;55.686;37.848;2022-11-28T15:38:40;6.93;;;4.40;;
47784;SDS011;35233;55.686;37.848;2022-11-28T15:41:09;7.05;;;5.18;;
47784;SDS011;35233;55.686;37.848;2022-11-28T15:43:36;7.63;;;5.03;;
47784;SDS011;35233;55.686;37.848;2022-11-28T15:46:11;8.18;;;4.63;;
47784;SDS011;35233;55.686;37.848;2022-11-28T15:48:47;6.93;;;4.43;;
47784;SDS011;35233;55.686;37.848;2022-11-28T15:51:28;9.40;;;4.97;;
47784;SDS011;35233;55.686;37.848;2022-11-28T15:53:56;6.80;;;4.75;;
47784;SDS011;35233;55.686;37.848;2022-11-28T15:56:23;6.53;;;4.55;;
47784;SDS011;35233;55.686;37.848;2022-11-28T15:58:50;6.95;;;4.40;;
47784;SDS011;35233;55.686;37.848;2022-11-28T16:04:46;7.28;;;4.35;;
47784;SDS011;35233;55.686;37.848;2022-11-28T16:07:32;7.00;;;4.43;;
47784;SDS011;35233;55.686;37.848;2022-11-28T16:13:10;7.82;;;5.05;;
47784;SDS011;35233;55.686;37.848;2022-11-28T16:15:43;6.40;;;4.50;;
47784;SDS011;35233;55.686;37.848;2022-11-28T16:18:12;6.72;;;4.78;;
47784;SDS011;35233;55.686;37.848;2022-11-28T16:20:39;6.32;;;4.60;;
47784;SDS011;35233;55.686;37.848;2022-11-28T16:23:07;7.20;;;3.70;;
47784;SDS011;35233;55.686;37.848;2022-11-28T16:25:37;7.38;;;4.15;;
47784;SDS011;35233;55.686;37.848;2022-11-28T16:28:30;9.68;;;4.28;;
47784;SDS011;35233;55.686;37.848;2022-11-28T16:31:00;9.02;;;4.25;;
47784;SDS011;35233;55.686;37.848;2022-11-28T16:33:46;6.28;;;4.20;;
47784;SDS011;35233;55.686;37.848;2022-11-28T16:36:18;6.75;;;4.38;;
47784;SDS011;35233;55.686;37.848;2022-11-28T16:41:44;8.10;;;4.45;;
47784;SDS011;35233;55.686;37.848;2022-11-28T16:44:30;7.18;;;4.43;;
47784;SDS011;35233;55.686;37.848;2022-11-28T16:46:57;6.50;;;3.83;;
47784;SDS011;35233;55.686;37.848;2022-11-28T16:52:37;7.22;;;4.10;;
47784;SDS011;35233;55.686;37.848;2022-11-28T16:54:52;6.85;;;4.28;;
47784;SDS011;35233;55.686;37.848;2022-11-28T16:57:19;7.85;;;4.35;;
47784;SDS011;35233;55.686;37.848;2022-11-28T16:59:45;6.57;;;4.10;;
47784;SDS011;35233;55.686;37.848;2022-11-28T17:02:13;7.88;;;4.30;;
47784;SDS011;35233;55.686;37.848;2022-11-28T17:04:41;5.88;;;4.13;;
47784;SDS011;35233;55.686;37.848;2022-11-28T17:07:08;6.63;;;4.43;;
47784;SDS011;35233;55.686;37.848;2022-11-28T17:09:35;6.63;;;4.28;;
47784;SDS011;35233;55.686;37.848;2022-11-28T17:12:02;9.10;;;4.75;;
47784;SDS011;35233;55.686;37.848;2022-11-28T17:17:40;10.90;;;6.53;;
47784;SDS011;35233;55.686;37.848;2022-11-28T17:20:12;8.80;;;5.55;;
47784;SDS011;35233;55.686;37.848;2022-11-28T17:22:43;10.80;;;6.25;;
47784;SDS011;35233;55.686;37.848;2022-11-28T17:25:15;13.40;;;7.30;;
47784;SDS011;35233;55.686;37.848;2022-11-28T17:27:42;12.07;;;6.97;;
47784;SDS011;35233;55.686;37.848;2022-11-28T17:30:17;13.32;;;7.15;;
47784;SDS011;35233;55.686;37.848;2022-11-28T17:32:46;19.60;;;7.95;;
47784;SDS011;35233;55.686;37.848;2022-11-28T17:35:16;13.80;;;7.82;;
47784;SDS011;35233;55.686;37.848;2022-11-28T17:37:45;14.32;;;7.55;;
47784;SDS011;35233;55.686;37.848;2022-11-28T17:40:15;17.63;;;8.52;;
47784;SDS011;35233;55.686;37.848;2022-11-28T17:43:00;16.40;;;9.40;;
47784;SDS011;35233;55.686;37.848;2022-11-28T17:45:30;13.75;;;7.57;;
47784;SDS011;35233;55.686;37.848;2022-11-28T17:47:59;14.25;;;8.93;;
47784;SDS011;35233;55.686;37.848;2022-11-28T17:50:30;14.95;;;8.70;;
47784;SDS011;35233;55.686;37.848;2022-11-28T17:52:55;13.88;;;8.25;;
47784;SDS011;35233;55.686;37.848;2022-11-28T17:55:21;11.32;;;7.35;;
47784;SDS011;35233;55.686;37.848;2022-11-28T17:57:46;13.45;;;8.10;;
47784;SDS011;35233;55.686;37.848;2022-11-28T18:00:13;16.10;;;7.13;;
47784;SDS011;35233;55.686;37.848;2022-11-28T18:02:39;11.68;;;6.55;;
47784;SDS011;35233;55.686;37.848;2022-11-28T18:05:05;9.98;;;6.80;;
47784;SDS011;35233;55.686;37.848;2022-11-28T18:07:31;10.77;;;6.63;;
47784;SDS011;35233;55.686;37.848;2022-11-28T18:09:56;9.15;;;6.22;;
47784;SDS011;35233;55.686;37.848;2022-11-28T18:12:22;8.73;;;5.88;;